createdAt,value
2019-05-29T00:01:17.751Z,94602.84
2019-05-29T00:03:37.964Z,94608.69
2019-05-29T00:06:03.976Z,94611.77
2019-05-29T00:08:29.990Z,94612.28
2019-05-29T00:10:55.996Z,94610.02
2019-05-29T00:13:22.004Z,94610.95
2019-05-29T00:15:48.007Z,94612.28
2019-05-29T00:18:14.603Z,94610.95
2019-05-29T00:20:40.026Z,94620.41
2019-05-29T00:23:06.423Z,94624.80
2019-05-29T00:25:32.041Z,94624.42
2019-05-29T00:27:58.055Z,94632.94
2019-05-29T00:30:24.052Z,94629.76
2019-05-29T00:32:50.065Z,94636.94
2019-05-29T00:35:16.358Z,94636.94
2019-05-29T00:37:42.082Z,94632.02
2019-05-29T00:40:08.898Z,94627.59
2019-05-29T00:42:34.092Z,94632.94
2019-05-29T00:45:00.086Z,94640.95
2019-05-29T00:47:26.084Z,94642.28
2019-05-29T00:49:52.108Z,94642.69
2019-05-29T00:52:18.378Z,94638.27
2019-05-29T00:54:44.123Z,94644.44
2019-05-29T00:57:10.877Z,94640.95
2019-05-29T00:59:36.132Z,94644.44
2019-05-29T01:02:02.123Z,94645.77
2019-05-29T01:04:28.143Z,94648.95
2019-05-29T01:06:54.158Z,94644.53
2019-05-29T01:09:20.783Z,94644.44
2019-05-29T01:11:46.199Z,94644.13
2019-05-29T01:14:13.085Z,94646.79
2019-05-29T01:16:38.187Z,94641.86
2019-05-29T01:19:04.184Z,94643.61
2019-05-29T01:21:30.207Z,94648.03
2019-05-29T01:23:56.200Z,94645.36
2019-05-29T01:26:22.830Z,94652.55
2019-05-29T01:28:48.221Z,94643.61
2019-05-29T01:31:15.183Z,94638.27
2019-05-29T01:33:40.281Z,94647.62
2019-05-29T01:36:06.292Z,94651.11
2019-05-29T01:38:32.284Z,94656.04
2019-05-29T01:40:58.310Z,94647.62
2019-05-29T01:43:24.304Z,94641.86
2019-05-29T01:45:50.309Z,94651.63
2019-05-29T01:48:17.338Z,94658.80
2019-05-29T01:50:42.317Z,94656.67
2019-05-29T01:53:08.336Z,94666.72
2019-05-29T01:55:34.331Z,94666.30
2019-05-29T01:58:00.343Z,94669.38
2019-05-29T02:00:26.347Z,94675.14
2019-05-29T02:02:52.372Z,94669.89
2019-05-29T02:05:18.391Z,94667.63
2019-05-29T02:07:44.385Z,94666.72
2019-05-29T02:10:10.400Z,94668.97
2019-05-29T02:12:36.395Z,94665.89
2019-05-29T02:15:02.502Z,94662.39
2019-05-29T02:17:28.502Z,94667.22
2019-05-29T02:19:54.528Z,94669.89
2019-05-29T02:22:20.937Z,94668.97
2019-05-29T02:24:46.523Z,94674.72
2019-05-29T02:27:12.538Z,94677.48
2019-05-29T02:29:38.575Z,94667.73
2019-05-29T02:32:04.676Z,94671.23
2019-05-29T02:34:30.696Z,94668.56
2019-05-29T02:36:56.693Z,94673.89
2019-05-29T02:39:23.461Z,94681.48
2019-05-29T02:41:48.885Z,94684.16
2019-05-29T02:44:15.012Z,94683.36
2019-05-29T02:46:41.008Z,94686.83
2019-05-29T02:49:07.029Z,94687.23
2019-05-29T02:51:33.033Z,94687.75
2019-05-29T02:53:59.039Z,94690.42
2019-05-29T02:56:26.890Z,94690.33
2019-05-29T02:58:51.054Z,94688.58
2019-05-29T03:01:17.089Z,94694.42
2019-05-29T03:03:43.202Z,94697.00
2019-05-29T03:06:09.202Z,94700.59
2019-05-29T03:08:35.225Z,94698.33
2019-05-29T03:11:01.226Z,94702.84
2019-05-29T03:13:27.762Z,94703.26
2019-05-29T03:16:09.527Z,94704.17
2019-05-29T03:18:19.267Z,94709.93
2019-05-29T03:20:45.257Z,94711.27
2019-05-29T03:23:11.262Z,94712.59
2019-05-29T03:25:37.274Z,94704.59
2019-05-29T03:28:03.279Z,94717.52
2019-05-29T03:30:31.680Z,94716.73
2019-05-29T03:32:55.329Z,94722.86
2019-05-29T03:35:21.312Z,94720.20
2019-05-29T03:37:47.335Z,94727.69
2019-05-29T03:40:13.327Z,94732.11
2019-05-29T03:42:39.429Z,94732.11
2019-05-29T03:45:05.346Z,94729.86
2019-05-29T03:47:33.039Z,94730.36
2019-05-29T03:49:57.359Z,94726.36
2019-05-29T03:52:23.363Z,94721.84
2019-05-29T03:54:49.394Z,94724.39
2019-05-29T03:57:15.407Z,94720.67
2019-05-29T03:59:41.429Z,94726.42
2019-05-29T04:02:07.454Z,94724.59
2019-05-29T04:04:34.104Z,94731.04
2019-05-29T04:06:59.494Z,94736.80
2019-05-29T04:09:26.954Z,94727.45
2019-05-29T04:11:51.492Z,94729.58
2019-05-29T04:14:17.501Z,94732.56
2019-05-29T04:16:59.314Z,94729.48
2019-05-29T04:19:09.521Z,94729.48
2019-05-29T04:21:36.366Z,94736.16
2019-05-29T04:24:01.543Z,94740.58
2019-05-29T04:26:27.942Z,94741.37
2019-05-29T04:28:53.556Z,94744.87
2019-05-29T04:31:19.572Z,94745.28
2019-05-29T04:33:45.567Z,94744.36
2019-05-29T04:36:11.693Z,94754.12
2019-05-29T04:38:38.509Z,94752.95
2019-05-29T04:41:03.724Z,94742.39
2019-05-29T04:43:31.087Z,94745.77
2019-05-29T04:45:55.741Z,94753.27
2019-05-29T04:48:21.867Z,94755.11
2019-05-29T04:50:47.871Z,94758.06
2019-05-29T04:53:14.175Z,94759.81
2019-05-29T04:55:40.185Z,94756.22
2019-05-29T04:58:06.273Z,94755.81
2019-05-29T05:00:33.088Z,94760.64
2019-05-29T05:02:58.275Z,94759.72
2019-05-29T05:05:24.296Z,94756.13
2019-05-29T05:07:50.353Z,94760.42
2019-05-29T05:10:16.382Z,94758.16
2019-05-29T05:12:42.507Z,94758.96
2019-05-29T05:15:08.540Z,94760.70
2019-05-29T05:17:35.912Z,94762.97
2019-05-29T05:20:00.545Z,94762.05
2019-05-29T05:22:26.601Z,94765.25
2019-05-29T05:24:52.601Z,94755.08
2019-05-29T05:27:18.620Z,94755.50
2019-05-29T05:29:44.650Z,94758.67
2019-05-29T05:32:10.651Z,94757.63
2019-05-29T05:34:37.119Z,94762.17
2019-05-29T05:37:03.197Z,94754.16
2019-05-29T05:39:29.205Z,94759.91
2019-05-29T05:41:55.350Z,94760.70
2019-05-29T05:44:21.361Z,94757.75
2019-05-29T05:46:47.391Z,94761.63
2019-05-29T05:49:13.416Z,94761.25
2019-05-29T05:51:42.776Z,94763.92
2019-05-29T05:54:05.481Z,94759.09
2019-05-29T05:56:31.510Z,94765.77
2019-05-29T05:58:57.558Z,94769.73
2019-05-29T06:01:23.558Z,94773.97
2019-05-29T06:03:49.613Z,94770.47
2019-05-29T06:06:15.587Z,94770.98
2019-05-29T06:08:42.466Z,94774.47
2019-05-29T06:11:07.617Z,94774.25
2019-05-29T06:13:34.149Z,94775.39
2019-05-29T06:15:59.806Z,94779.30
2019-05-29T06:18:25.809Z,94783.81
2019-05-29T06:20:51.821Z,94785.28
2019-05-29T06:23:17.845Z,94779.11
2019-05-29T06:25:43.991Z,94777.36
2019-05-29T06:28:09.870Z,94778.28
2019-05-29T06:30:36.634Z,94773.86
2019-05-29T06:33:01.898Z,94773.48
2019-05-29T06:35:27.929Z,94777.48
2019-05-29T06:37:53.938Z,94783.84
2019-05-29T06:40:20.005Z,94785.59
2019-05-29T06:42:46.025Z,94785.59
2019-05-29T06:45:12.053Z,94784.38
2019-05-29T06:47:38.608Z,94788.39
2019-05-29T06:50:04.110Z,94780.37
2019-05-29T06:52:30.105Z,94793.19
2019-05-29T06:54:56.133Z,94782.83
2019-05-29T06:57:25.752Z,94788.05
2019-05-29T06:59:48.922Z,94792.09
2019-05-29T07:02:14.176Z,94786.92
2019-05-29T07:04:40.458Z,94780.02
2019-05-29T07:07:06.278Z,94785.88
2019-05-29T07:09:32.333Z,94783.04
2019-05-29T07:11:58.355Z,94788.52
2019-05-29T07:14:24.368Z,94785.37
2019-05-29T07:16:56.029Z,94788.73
2019-05-29T07:19:25.673Z,94788.03
2019-05-29T07:21:42.786Z,94794.30
2019-05-29T07:24:08.440Z,94787.33
2019-05-29T07:26:34.429Z,94786.09
2019-05-29T07:29:07.969Z,94785.17
2019-05-29T07:31:26.448Z,94783.42
2019-05-29T07:33:52.468Z,94788.89
2019-05-29T07:36:18.489Z,94780.05
2019-05-29T07:38:54.895Z,94781.39
2019-05-29T07:41:10.553Z,94781.92
2019-05-29T07:43:37.566Z,94780.97
2019-05-29T07:46:02.576Z,94781.61
2019-05-29T07:48:28.585Z,94785.20
2019-05-29T07:51:06.678Z,94780.39
2019-05-29T07:53:20.584Z,94783.16
2019-05-29T07:55:46.790Z,94786.66
2019-05-29T07:58:12.607Z,94782.23
2019-05-29T08:01:01.066Z,94781.83
2019-05-29T08:03:04.636Z,94783.70
2019-05-29T08:05:30.653Z,94780.91
2019-05-29T08:07:56.652Z,94782.75
2019-05-29T08:10:22.688Z,94780.08
2019-05-29T08:12:54.395Z,94784.91
2019-05-29T08:15:14.695Z,94781.03
2019-05-29T08:17:41.913Z,94788.09
2019-05-29T08:20:07.896Z,94785.42
2019-05-29T08:22:34.595Z,94784.50
2019-05-29T08:24:58.754Z,94784.50
2019-05-29T08:27:24.776Z,94781.41
2019-05-29T08:29:51.183Z,94784.91
2019-05-29T08:32:16.806Z,94781.83
2019-05-29T08:34:43.034Z,94780.91
2019-05-29T08:37:08.829Z,94778.23
2019-05-29T08:39:36.835Z,94783.16
2019-05-29T08:42:21.249Z,94780.91
2019-05-29T08:44:26.887Z,94782.23
2019-05-29T08:47:09.240Z,94779.06
2019-05-29T08:49:18.986Z,94774.73
2019-05-29T08:51:45.965Z,94780.49
2019-05-29T08:54:23.428Z,94783.58
2019-05-29T08:56:37.137Z,94782.23
2019-05-29T08:59:03.172Z,94775.47
2019-05-29T09:01:29.233Z,94777.73
2019-05-29T09:03:55.211Z,94778.65
2019-05-29T09:06:21.437Z,94777.73
2019-05-29T09:08:48.506Z,94783.98
2019-05-29T09:11:13.286Z,94787.87
2019-05-29T09:13:39.284Z,94777.73
2019-05-29T09:16:05.324Z,94781.83
2019-05-29T09:18:31.320Z,94780.39
2019-05-29T09:21:03.195Z,94774.93
2019-05-29T09:23:23.421Z,94770.51
2019-05-29T09:25:49.369Z,94772.80
2019-05-29T09:28:16.594Z,94764.37
2019-05-29T09:30:41.398Z,94761.16
2019-05-29T09:33:07.406Z,94760.25
2019-05-29T09:35:33.418Z,94759.73
2019-05-29T09:37:59.433Z,94763.33
2019-05-29T09:40:25.450Z,94759.73
2019-05-29T09:42:51.452Z,94756.56
2019-05-29T09:45:17.945Z,94764.95
2019-05-29T09:47:43.478Z,94758.27
2019-05-29T09:50:09.495Z,94764.44
2019-05-29T09:52:35.634Z,94767.11
2019-05-29T09:55:02.579Z,94759.01
2019-05-29T09:57:27.560Z,94760.72
2019-05-29T09:59:54.446Z,94760.72
2019-05-29T10:02:19.579Z,94754.88
2019-05-29T10:04:45.584Z,94754.37
2019-05-29T10:07:11.615Z,94755.16
2019-05-29T10:09:37.609Z,94751.28
2019-05-29T10:12:06.711Z,94749.53
2019-05-29T10:14:29.636Z,94749.03
2019-05-29T10:16:58.229Z,94745.44
2019-05-29T10:19:21.735Z,94741.02
2019-05-29T10:21:47.740Z,94737.42
2019-05-29T10:24:13.750Z,94736.59
2019-05-29T10:26:39.744Z,94736.09
2019-05-29T10:29:09.073Z,94727.54
2019-05-29T10:31:31.850Z,94727.54
2019-05-29T10:33:57.874Z,94725.00
2019-05-29T10:36:24.128Z,94730.62
2019-05-29T10:38:50.696Z,94730.75
2019-05-29T10:41:16.147Z,94734.22
2019-05-29T10:43:42.947Z,94735.55
2019-05-29T10:46:08.158Z,94729.41
2019-05-29T10:48:34.270Z,94720.86
2019-05-29T10:51:00.239Z,94724.36
2019-05-29T10:53:26.237Z,94717.17
2019-05-29T10:55:52.680Z,94716.86
2019-05-29T10:58:18.285Z,94718.80
2019-05-29T11:00:45.353Z,94720.96
2019-05-29T11:03:10.332Z,94719.63
2019-05-29T11:05:36.346Z,94724.55
2019-05-29T11:08:02.355Z,94723.62
2019-05-29T11:10:28.353Z,94722.67
2019-05-29T11:12:54.725Z,94718.80
2019-05-29T11:15:21.921Z,94720.96
2019-05-29T11:17:47.175Z,94716.55
2019-05-29T11:20:12.639Z,94723.62
2019-05-29T11:22:38.675Z,94716.12
2019-05-29T11:25:21.406Z,94723.22
2019-05-29T11:27:30.764Z,94721.47
2019-05-29T11:29:57.163Z,94721.98
2019-05-29T11:32:22.739Z,94722.39
2019-05-29T11:34:48.965Z,94726.81
2019-05-29T11:37:14.794Z,94726.81
2019-05-29T11:39:40.820Z,94726.30
2019-05-29T11:42:06.815Z,94724.42
2019-05-29T11:44:32.880Z,94722.30
2019-05-29T11:46:58.869Z,94716.32
2019-05-29T11:49:24.871Z,94717.23
2019-05-29T11:51:51.574Z,94720.33
2019-05-29T11:54:16.887Z,94714.06
2019-05-29T11:56:42.909Z,94713.52
2019-05-29T11:59:08.920Z,94711.17
2019-05-29T12:01:49.735Z,94707.03
2019-05-29T12:04:24.095Z,94703.54
2019-05-29T12:06:27.101Z,94711.05
2019-05-29T12:08:53.650Z,94704.37
2019-05-29T12:11:19.113Z,94708.50
2019-05-29T12:13:45.214Z,94708.78
2019-05-29T12:16:11.317Z,94712.16
2019-05-29T12:18:37.328Z,94717.21
2019-05-29T12:21:03.341Z,94716.67
2019-05-29T12:23:29.351Z,94712.98
2019-05-29T12:26:18.849Z,94714.73
2019-05-29T12:28:21.492Z,94713.27
2019-05-29T12:30:47.480Z,94710.59
2019-05-29T12:33:13.494Z,94698.16
2019-05-29T12:35:39.516Z,94699.50
2019-05-29T12:38:05.539Z,94696.33
2019-05-29T12:40:31.545Z,94698.90
2019-05-29T12:42:57.608Z,94697.44
2019-05-29T12:45:23.566Z,94698.36
2019-05-29T12:47:49.569Z,94697.95
2019-05-29T12:50:15.640Z,94702.49
2019-05-29T12:52:41.630Z,94699.69
2019-05-29T12:55:07.659Z,94689.94
2019-05-29T12:57:33.673Z,94686.88
2019-05-29T13:00:00.309Z,94692.22
2019-05-29T13:02:25.789Z,94691.27
2019-05-29T13:05:16.271Z,94692.09
2019-05-29T13:07:17.939Z,94686.88
2019-05-29T13:09:43.939Z,94691.27
2019-05-29T13:12:09.966Z,94685.12
2019-05-29T13:14:35.959Z,94681.13
2019-05-29T13:17:03.033Z,94681.64
2019-05-29T13:19:28.025Z,94679.79
2019-05-29T13:21:55.049Z,94677.21
2019-05-29T13:24:20.054Z,94677.62
2019-05-29T13:26:46.111Z,94672.38
2019-05-29T13:29:12.113Z,94673.72
2019-05-29T13:31:38.408Z,94681.34
2019-05-29T13:34:04.447Z,94681.86
2019-05-29T13:36:30.151Z,94692.41
2019-05-29T13:38:56.144Z,94684.11
2019-05-29T13:41:22.175Z,94688.95
2019-05-29T13:43:48.192Z,94686.38
2019-05-29T13:46:14.200Z,94693.97
2019-05-29T13:48:40.217Z,94684.75
2019-05-29T13:51:07.402Z,94683.70
2019-05-29T13:53:32.301Z,94688.63
2019-05-29T13:55:59.705Z,94684.75
2019-05-29T13:58:24.326Z,94686.09
2019-05-29T14:00:50.360Z,94689.68
2019-05-29T14:03:16.347Z,94694.61
2019-05-29T14:05:42.363Z,94695.53
2019-05-29T14:08:09.203Z,94695.02
2019-05-29T14:10:34.375Z,94698.61
2019-05-29T14:13:00.933Z,94694.19
2019-05-29T14:15:26.403Z,94695.14
2019-05-29T14:17:52.426Z,94697.81
2019-05-29T14:20:18.441Z,94695.53
2019-05-29T14:22:44.454Z,94702.20
2019-05-29T14:25:11.673Z,94705.92
2019-05-29T14:27:36.475Z,94709.93
2019-05-29T14:30:05.741Z,94698.84
2019-05-29T14:32:30.857Z,94701.00
2019-05-29T14:34:56.876Z,94698.04
2019-05-29T14:37:22.891Z,94695.75
2019-05-29T14:39:48.903Z,94699.25
2019-05-29T14:42:14.933Z,94690.83
2019-05-29T14:44:41.076Z,94691.36
2019-05-29T14:47:08.011Z,94693.39
2019-05-29T14:49:33.083Z,94691.36
2019-05-29T14:51:59.110Z,94689.48
2019-05-29T14:54:40.690Z,94689.08
2019-05-29T14:56:51.407Z,94690.03
2019-05-29T14:59:17.503Z,94689.48
2019-05-29T15:01:43.443Z,94686.81
2019-05-29T15:04:09.644Z,94689.61
2019-05-29T15:06:35.555Z,94690.03
2019-05-29T15:09:01.596Z,94691.65
2019-05-29T15:11:27.625Z,94686.59
2019-05-29T15:13:53.631Z,94685.48
2019-05-29T15:16:19.761Z,94688.53
2019-05-29T15:18:45.795Z,94689.36
2019-05-29T15:21:13.110Z,94695.08
2019-05-29T15:23:37.865Z,94703.92
2019-05-29T15:26:03.863Z,94694.35
2019-05-29T15:28:29.939Z,94703.61
2019-05-29T15:30:55.941Z,94704.94
2019-05-29T15:33:21.958Z,94701.73
2019-05-29T15:35:47.972Z,94705.22
2019-05-29T15:38:14.886Z,94711.39
2019-05-29T15:40:40.031Z,94718.87
2019-05-29T15:43:06.631Z,94719.28
2019-05-29T15:45:32.077Z,94717.02
2019-05-29T15:47:58.082Z,94726.37
2019-05-29T15:50:24.103Z,94728.63
2019-05-29T15:52:56.710Z,94731.08
2019-05-29T15:55:32.078Z,94736.61
2019-05-29T15:57:52.039Z,94738.87
2019-05-29T16:00:20.960Z,94744.91
2019-05-29T16:02:49.716Z,94759.09
2019-05-29T16:05:17.214Z,94760.84
2019-05-29T16:07:42.482Z,94763.32
2019-05-29T16:10:08.595Z,94772.26
2019-05-29T16:12:34.922Z,94766.50
2019-05-29T16:15:02.932Z,94767.74
2019-05-29T16:17:29.271Z,94775.85
2019-05-29T16:19:56.388Z,94779.06
2019-05-29T16:22:23.634Z,94785.74
2019-05-29T16:24:49.919Z,94782.14
2019-05-29T16:27:16.143Z,94785.52
2019-05-29T16:29:42.141Z,94777.09
2019-05-29T16:32:08.180Z,94777.92
2019-05-29T16:34:34.325Z,94779.13
2019-05-29T16:37:00.542Z,94786.22
2019-05-29T16:39:26.741Z,94786.22
2019-05-29T16:41:52.749Z,94784.88
2019-05-29T16:44:25.001Z,94781.80
2019-05-29T16:46:46.454Z,94787.05
2019-05-29T16:49:12.588Z,94788.38
2019-05-29T16:51:42.116Z,94787.97
2019-05-29T16:54:07.096Z,94783.64
2019-05-29T16:56:36.506Z,94790.23
2019-05-29T16:59:02.525Z,94787.14
2019-05-29T17:01:28.876Z,94790.73
2019-05-29T17:03:54.877Z,94791.66
2019-05-29T17:06:22.434Z,94802.34
2019-05-29T17:08:47.289Z,94802.25
2019-05-29T17:11:14.601Z,94810.27
2019-05-29T17:13:42.761Z,94815.19
2019-05-29T17:16:09.520Z,94813.85
2019-05-29T17:18:36.088Z,94816.66
2019-05-29T17:21:02.393Z,94815.31
2019-05-29T17:23:28.967Z,94822.79
2019-05-29T17:26:10.319Z,94827.72
2019-05-29T17:28:26.272Z,94833.48
2019-05-29T17:30:49.497Z,94838.81
2019-05-29T17:33:16.886Z,94838.02
2019-05-29T17:35:43.647Z,94834.11
2019-05-29T17:38:09.753Z,94837.19
2019-05-29T17:40:36.179Z,94847.87
2019-05-29T17:43:02.866Z,94848.30
2019-05-29T17:45:29.803Z,94853.09
2019-05-29T17:48:00.581Z,94854.05
2019-05-29T17:50:26.857Z,94850.05
2019-05-29T17:52:52.875Z,94853.92
2019-05-29T17:55:21.686Z,94857.10
2019-05-29T17:57:44.897Z,94858.85
2019-05-29T18:00:10.915Z,94865.94
2019-05-29T18:02:50.909Z,94866.87
2019-05-29T18:05:02.968Z,94867.69
2019-05-29T18:07:28.981Z,94866.87
2019-05-29T18:09:55.039Z,94869.95
2019-05-29T18:12:21.045Z,94880.13
2019-05-29T18:14:47.156Z,94880.13
2019-05-29T18:17:13.176Z,94886.39
2019-05-29T18:19:39.216Z,94887.22
2019-05-29T18:22:05.250Z,94885.47
2019-05-29T18:24:31.249Z,94888.94
2019-05-29T18:26:59.228Z,94889.77
2019-05-29T18:29:24.434Z,94898.61
2019-05-29T18:31:49.418Z,94904.53
2019-05-29T18:34:15.454Z,94907.43
2019-05-29T18:36:41.491Z,94916.27
2019-05-29T18:39:07.594Z,94915.44
2019-05-29T18:41:33.620Z,94915.35
2019-05-29T18:43:59.673Z,94917.90
2019-05-29T18:46:27.131Z,94920.16
2019-05-29T18:48:51.782Z,94920.98
2019-05-29T18:51:18.002Z,94931.67
2019-05-29T18:53:43.995Z,94945.44
2019-05-29T18:56:10.164Z,94945.95
2019-05-29T18:58:36.234Z,94945.73
2019-05-29T19:01:02.252Z,94952.12
2019-05-29T19:03:29.524Z,94954.58
2019-05-29T19:05:54.282Z,94965.27
2019-05-29T19:08:21.536Z,94971.02
2019-05-29T19:10:46.313Z,94974.11
2019-05-29T19:13:12.326Z,94973.16
2019-05-29T19:15:38.491Z,94977.58
2019-05-29T19:18:04.505Z,94983.84
2019-05-29T19:20:30.601Z,94979.73
2019-05-29T19:22:56.737Z,94980.78
2019-05-29T19:25:22.786Z,94986.92
2019-05-29T19:27:48.753Z,94991.86
2019-05-29T19:30:14.755Z,94995.86
2019-05-29T19:32:40.788Z,94995.48
2019-05-29T19:35:06.785Z,95001.62
2019-05-29T19:37:34.039Z,95003.78
2019-05-29T19:39:58.877Z,95006.45
2019-05-29T19:42:25.902Z,95009.13
2019-05-29T19:44:50.892Z,95015.72
2019-05-29T19:47:16.890Z,95022.91
2019-05-29T19:49:42.895Z,95023.31
2019-05-29T19:52:08.928Z,95029.17
2019-05-29T19:54:35.717Z,95032.76
2019-05-29T19:57:00.928Z,95025.16
2019-05-29T19:59:27.959Z,95034.60
2019-05-29T20:01:52.957Z,95042.23
2019-05-29T20:04:18.995Z,95050.76
2019-05-29T20:06:45.000Z,95053.43
2019-05-29T20:09:11.026Z,95053.02
2019-05-29T20:11:37.868Z,95057.44
2019-05-29T20:14:03.150Z,95056.19
2019-05-29T20:16:30.096Z,95051.80
2019-05-29T20:18:55.187Z,95057.15
2019-05-29T20:21:21.246Z,95058.58
2019-05-29T20:23:47.256Z,95056.41
2019-05-29T20:26:13.268Z,95053.35
2019-05-29T20:28:39.274Z,95056.95
2019-05-29T20:31:05.321Z,95053.86
2019-05-29T20:33:32.390Z,95059.20
2019-05-29T20:35:57.322Z,95054.36
2019-05-29T20:38:23.387Z,95050.48
2019-05-29T20:40:49.342Z,95057.95
2019-05-29T20:43:15.363Z,95054.91
2019-05-29T20:45:41.703Z,95060.34
2019-05-29T20:48:07.464Z,95064.44
2019-05-29T20:50:33.427Z,95070.58
2019-05-29T20:55:37.725Z,95067.70
2019-05-29T20:58:03.241Z,95077.59
2019-05-29T21:00:29.307Z,95077.47
2019-05-29T21:02:55.462Z,95081.48
2019-05-29T21:05:21.464Z,95066.91
2019-05-29T21:07:47.491Z,95072.76
2019-05-29T21:10:13.496Z,95082.02
2019-05-29T21:12:44.351Z,95082.11
2019-05-29T21:15:05.555Z,95080.77
2019-05-29T21:17:31.544Z,95087.04
2019-05-29T21:19:57.571Z,95081.11
2019-05-29T21:22:23.571Z,95093.84
2019-05-29T21:25:03.297Z,95089.00
2019-05-29T21:27:15.769Z,95091.16
2019-05-29T21:29:41.796Z,95094.76
2019-05-29T21:32:07.790Z,95092.09
2019-05-29T21:34:33.819Z,95088.59
2019-05-29T21:36:59.838Z,95081.49
2019-05-29T21:39:25.835Z,95084.16
2019-05-29T21:41:51.864Z,95081.61
2019-05-29T21:44:17.862Z,95083.78
2019-05-29T21:46:45.050Z,95086.55
2019-05-29T21:49:09.979Z,95097.23
2019-05-29T21:51:37.285Z,95102.98
2019-05-29T21:54:02.039Z,95107.50
2019-05-29T21:56:28.061Z,95103.49
2019-05-29T21:59:03.375Z,95101.74
2019-05-29T22:01:20.049Z,95114.59
2019-05-29T22:03:46.530Z,95107.63
2019-05-29T22:06:12.093Z,95109.38
2019-05-29T22:08:38.742Z,95105.87
2019-05-29T22:11:04.091Z,95110.30
2019-05-29T22:13:30.078Z,95108.55
2019-05-29T22:15:56.869Z,95104.03
2019-05-29T22:18:22.159Z,95092.92
2019-05-29T22:20:48.182Z,95091.17
2019-05-29T22:23:14.194Z,95095.27
2019-05-29T22:25:40.201Z,95097.95
2019-05-29T22:28:06.218Z,95103.29
2019-05-29T22:30:32.222Z,95100.23
2019-05-29T22:32:59.472Z,95103.41
2019-05-29T22:35:24.249Z,95100.74
2019-05-29T22:37:51.433Z,95106.50
2019-05-29T22:40:16.276Z,95110.09
2019-05-29T22:42:42.294Z,95112.77
2019-05-29T22:45:08.351Z,95116.27
2019-05-29T22:47:34.342Z,95113.18
2019-05-29T22:50:00.376Z,95123.86
2019-05-29T22:52:26.391Z,95123.53
2019-05-29T22:54:53.658Z,95127.04
2019-05-29T22:57:18.406Z,95124.88
2019-05-29T22:59:44.412Z,95118.61
2019-05-29T23:02:10.419Z,95124.88
2019-05-29T23:04:36.430Z,95123.53
2019-05-29T23:07:02.620Z,95122.20
2019-05-29T23:09:28.483Z,95131.17
2019-05-29T23:11:54.483Z,95130.75
2019-05-29T23:14:20.502Z,95128.59
2019-05-29T23:16:46.501Z,95134.34
2019-05-29T23:19:12.517Z,95137.02
2019-05-29T23:21:38.532Z,95132.50
2019-05-29T23:24:04.546Z,95139.69
2019-05-29T23:26:30.544Z,95140.10
2019-05-29T23:28:56.863Z,95134.22
2019-05-29T23:31:22.737Z,95132.09
2019-05-29T23:33:48.735Z,95134.34
2019-05-29T23:36:14.752Z,95138.44
2019-05-29T23:38:40.747Z,95144.61
2019-05-29T23:41:06.815Z,95143.28
2019-05-29T23:43:32.843Z,95143.28
2019-05-29T23:45:59.476Z,95137.52
2019-05-29T23:48:24.855Z,95143.28
2019-05-29T23:50:50.931Z,95143.28
2019-05-29T23:53:16.942Z,95147.79
2019-05-29T23:55:42.957Z,95143.78
2019-05-29T23:58:08.939Z,95139.77
